createdAt,value
2017-06-26T10:48:46.581Z,3465
2017-06-26T10:49:47.986Z,3485
2017-06-26T10:51:09.484Z,3575
2017-06-26T10:52:10.886Z,3675
2017-06-26T10:53:32.386Z,325
2017-06-26T10:54:33.789Z,475
2017-06-26T10:55:55.658Z,1375
2017-06-26T10:56:57.067Z,3495
2017-06-26T10:58:18.604Z,3710
2017-06-26T10:59:21.172Z,3565
2017-06-26T11:00:43.975Z,3370
2017-06-26T11:01:45.386Z,3430
2017-06-26T11:03:07.224Z,660
2017-06-26T11:04:08.637Z,3095
2017-06-26T11:05:30.139Z,200
2017-06-26T11:10:50.770Z,1415
2017-06-26T11:11:52.977Z,3495
2017-06-26T11:13:14.633Z,3605
2017-06-26T11:14:16.053Z,3610
2017-06-26T11:15:38.712Z,3515
2017-06-26T11:16:41.065Z,3530
2017-06-26T11:18:02.877Z,3540
2017-06-26T12:14:02.194Z,415
2017-06-26T12:15:04.159Z,3790
2017-06-26T12:16:25.841Z,525
2017-06-26T12:23:23.367Z,0
2017-06-26T12:24:24.767Z,0
2017-06-26T12:25:46.486Z,0
2017-06-26T12:26:48.540Z,0
2017-06-26T12:28:10.263Z,0
2017-06-26T12:29:11.663Z,0
2017-06-26T12:30:34.580Z,0
2017-06-26T12:31:35.986Z,0
2017-06-26T12:32:58.720Z,0
2017-06-26T12:34:00.911Z,0
2017-06-26T12:35:23.760Z,0
2017-06-26T12:36:26.111Z,0
2017-06-26T12:37:48.180Z,0
2017-06-26T12:38:49.702Z,0
2017-06-26T12:40:13.371Z,0
2017-06-26T12:41:14.765Z,0
2017-06-26T12:42:36.266Z,0
2017-06-26T12:43:37.666Z,0
2017-06-26T12:45:00.831Z,0
2017-06-26T12:46:02.234Z,0
2017-06-26T12:47:23.808Z,0
2017-06-26T12:48:25.900Z,0
2017-06-26T12:49:47.582Z,0
2017-06-26T12:56:30.776Z,10
2017-06-26T12:57:32.171Z,10
2017-06-26T13:03:35.182Z,20
2017-06-26T13:04:36.578Z,20
2017-06-26T13:05:58.355Z,20
2017-06-26T13:06:59.747Z,15
2017-06-26T13:08:21.502Z,20
2017-06-26T13:09:22.900Z,20
2017-06-26T13:10:45.841Z,15
2017-06-26T13:11:47.325Z,20
2017-06-26T13:13:09.067Z,15
2017-06-26T13:14:10.458Z,15
2017-06-26T13:15:32.212Z,15
2017-06-26T13:16:33.606Z,15
2017-06-26T13:17:55.662Z,15
2017-06-26T13:18:57.064Z,15
2017-06-26T13:20:18.829Z,15
2017-06-26T13:21:20.225Z,15
2017-06-26T13:22:42.625Z,10
2017-06-26T13:23:44.021Z,15
2017-06-26T13:25:06.956Z,10
2017-06-26T13:27:25.238Z,25
2017-06-26T13:27:49.502Z,30
2017-06-26T13:28:50.894Z,25
2017-06-26T13:30:14.760Z,30
2017-06-26T13:31:16.154Z,0
2017-06-26T13:32:38.917Z,30
2017-06-26T13:38:45.365Z,5
2017-06-26T13:39:46.759Z,10
2017-06-26T13:41:08.549Z,5
2017-06-26T13:42:09.944Z,10
2017-06-26T13:43:31.693Z,5
2017-06-26T13:44:33.088Z,10
2017-06-26T13:45:57.118Z,10
2017-06-26T13:47:12.580Z,10
2017-06-26T13:47:39.003Z,15
2017-06-26T13:48:40.400Z,5
2017-06-26T13:50:02.152Z,5
2017-06-26T13:51:03.547Z,5
2017-06-26T13:52:28.194Z,5
2017-06-26T13:53:29.583Z,10
2017-06-26T13:54:30.975Z,10
2017-06-26T13:55:32.373Z,15
2017-06-26T13:56:33.766Z,25
2017-06-26T13:57:35.164Z,25
2017-06-26T13:58:36.560Z,25
2017-06-26T13:59:37.960Z,15
2017-06-26T14:00:40.146Z,15
2017-06-26T14:01:40.697Z,20
2017-06-26T14:02:42.137Z,15
2017-06-26T14:03:43.726Z,20
2017-06-26T14:04:45.116Z,20
2017-06-26T14:05:46.515Z,15
2017-06-26T14:06:48.755Z,15
2017-06-26T14:07:50.150Z,15
2017-06-26T14:08:51.538Z,20
2017-06-26T14:09:53.534Z,15
2017-06-26T14:10:54.932Z,20
2017-06-26T14:11:56.326Z,25
2017-06-26T14:12:57.723Z,25
2017-06-26T14:13:59.795Z,20
2017-06-26T14:15:01.186Z,20
2017-06-26T14:16:02.581Z,20
2017-06-26T14:17:03.975Z,20
2017-06-26T14:18:05.374Z,20
2017-06-26T14:19:06.770Z,20
2017-06-26T14:20:08.265Z,15
2017-06-26T14:21:09.662Z,15
2017-06-26T14:22:11.057Z,15
2017-06-26T14:23:12.449Z,15
2017-06-26T14:24:13.849Z,15
2017-06-26T14:25:15.243Z,15
2017-06-26T14:26:17.378Z,15
2017-06-26T14:27:18.771Z,15
2017-06-26T14:28:20.173Z,15
2017-06-26T14:29:21.565Z,10
2017-06-26T14:30:22.959Z,10
2017-06-26T14:31:24.354Z,10
2017-06-26T14:32:25.751Z,10
2017-06-26T14:33:27.150Z,10
2017-06-26T14:34:30.156Z,15
2017-06-26T14:35:30.623Z,15
2017-06-26T14:36:32.018Z,15
2017-06-26T14:37:33.406Z,15
2017-06-26T14:38:34.803Z,10
2017-06-26T14:39:36.204Z,10
2017-06-26T14:40:37.602Z,10
2017-06-26T14:41:39.798Z,10
2017-06-26T14:42:41.885Z,10
2017-06-26T14:43:43.275Z,10
2017-06-26T14:44:44.669Z,5
2017-06-26T14:45:46.742Z,15
2017-06-26T14:46:44.774Z,20
2017-06-26T14:56:36.966Z,20
2017-06-26T14:57:38.362Z,15
2017-06-26T14:59:00.749Z,15
2017-06-26T15:00:02.143Z,20
2017-06-26T15:01:23.667Z,20
2017-06-26T15:02:25.805Z,10
2017-06-26T15:03:47.872Z,20
2017-06-26T15:04:49.273Z,20
2017-06-26T15:06:11.860Z,25
2017-06-26T15:07:12.253Z,25
2017-06-26T15:08:33.777Z,25
2017-06-26T15:09:35.169Z,25
2017-06-26T15:10:58.318Z,25
2017-06-26T15:11:59.709Z,25
2017-06-26T15:13:21.297Z,20
2017-06-26T15:14:22.688Z,20
2017-06-26T15:15:45.343Z,25
2017-06-26T15:16:46.748Z,25
2017-06-26T15:18:08.993Z,25
2017-06-26T15:19:11.210Z,20
2017-06-26T15:20:32.922Z,20
2017-06-26T15:21:34.313Z,15
2017-06-26T15:22:56.991Z,10
2017-06-26T15:23:58.381Z,10
2017-06-26T15:25:21.386Z,10
2017-06-26T15:26:23.042Z,10
2017-06-26T15:27:45.495Z,5
2017-06-26T15:28:47.731Z,10
2017-06-26T15:30:09.235Z,10
2017-06-26T15:31:10.623Z,10
2017-06-26T15:32:32.746Z,10
2017-06-26T15:33:34.141Z,10
2017-06-26T15:34:55.859Z,10
2017-06-26T15:35:58.094Z,5
2017-06-26T15:37:19.651Z,5
2017-06-26T15:38:21.044Z,5
2017-06-26T15:39:43.002Z,5
2017-06-26T15:40:44.417Z,10
2017-06-26T15:42:05.944Z,10
2017-06-26T15:43:07.337Z,10
2017-06-26T15:44:30.812Z,5
2017-06-26T15:45:32.208Z,0
2017-06-26T15:46:54.159Z,0
2017-06-26T15:47:55.555Z,0
2017-06-26T15:49:17.263Z,5
2017-06-26T15:50:19.309Z,5
2017-06-26T15:51:41.033Z,5
2017-06-26T15:52:42.430Z,10
2017-06-26T15:54:04.395Z,5
2017-06-26T15:55:05.788Z,5
2017-06-26T15:56:27.338Z,5
2017-06-26T15:57:28.732Z,5
2017-06-26T15:58:50.500Z,5
2017-06-26T15:59:52.658Z,5
2017-06-26T16:01:15.406Z,5
2017-06-26T16:02:16.799Z,5
2017-06-26T16:03:38.347Z,5
